• Join FlightAware (Why Join?)
  • Login
  • US Flag 
04:23AM EDT


 

Airport Tracker/Info


-or-


 

Live Flight TrackerFlight Track Log ✈ TRS409 ✈ 08-May-2013 ✈ KMCO - KMSP

Flight Track Log - Related Links

Times and Time Zones

All times are in EDT time to prevent confusion due to time zone crossing. See the TRS409 flight status page for this flight to view local times or setup timezone preferences in your user account.

Time Position Orientation Groundspeed Altitude Reporting Facility
EDT Latitude Longitude Course Direction KTS MPH feet Rate Location/Type
09:20PM 28.4333 -81.3000 360° North 177 204 600  Level Orlando TRACON
09:21PM 28.5167 -81.3000 360° North 255 293 3,100 1,980 Climbing Orlando TRACON
09:22PM 28.5667 -81.3500 319° Northwest 273 314 5,400 2,520 Climbing Orlando TRACON
09:23PM 28.5667 -81.4333 270° West 277 319 8,200 2,100 Climbing Orlando TRACON
09:25PM 28.5481 -81.5856 262° West 295 339 11,200 1,680 Climbing Jacksonville Center
09:26PM 28.5428 -81.6897 267° West 319 367 12,800 1,800 Climbing Jacksonville Center
09:27PM 28.5333 -81.8008 265° West 340 391 14,900 1,980 Climbing Jacksonville Center
09:28PM 28.5531 -81.9117 281° West 353 406 16,800 1,920 Climbing Jacksonville Center
09:29PM 28.5978 -82.0178 296° West 353 406 18,800 1,920 Climbing Jacksonville Center
09:30PM 28.6817 -82.0950 321° Northwest 365 420 20,700 1,800 Climbing Jacksonville Center
09:31PM 28.7739 -82.1725 324° Northwest 378 435 22,500 1,680 Climbing Jacksonville Center
09:32PM 28.8642 -82.2547 321° Northwest 404 465 24,100 1,560 Climbing Jacksonville Center
09:33PM 28.9542 -82.3397 320° Northwest 417 480 25,700 1,380 Climbing Jacksonville Center
09:34PM 29.0486 -82.4247 322° Northwest 422 486 26,900 1,200 Climbing Jacksonville Center
09:35PM 29.1450 -82.5122 322° Northwest 433 498 28,200 1,500 Climbing Jacksonville Center
09:36PM 29.2392 -82.5975 322° Northwest 433 498 29,900 1,500 Climbing Jacksonville Center
09:37PM 29.3331 -82.6831 322° Northwest 433 498 31,200 1,440 Climbing Jacksonville Center
09:38PM 29.4250 -82.7686 321° Northwest 433 498 32,800 1,380 Climbing Jacksonville Center
09:39PM 29.5211 -82.8567 321° Northwest 428 493 34,000 600 Climbing Jacksonville Center
09:40PM 29.6108 -82.9403 321° Northwest 428 493 34,000  Level Jacksonville Center
09:41PM 29.6986 -83.0169 323° Northwest 421 484 34,000  Level Jacksonville Center
09:42PM 29.7842 -83.1008 320° Northwest 415 478 34,000  Level Jacksonville Center
09:43PM 29.8736 -83.1847 321° Northwest 415 478 34,000  Level Jacksonville Center
09:44PM 29.9717 -83.2714 323° Northwest 409 471 34,000  Level Jacksonville Center
09:45PM 30.0611 -83.3533 322° Northwest 409 471 34,000  Level Jacksonville Center
09:46PM 30.1506 -83.4378 321° Northwest 409 471 34,000  Level Jacksonville Center
09:47PM 30.2378 -83.5200 321° Northwest 409 471 34,000  Level Jacksonville Center
09:48PM 30.3272 -83.6050 321° Northwest 404 465 34,000  Level Jacksonville Center
09:49PM 30.4144 -83.6850 322° Northwest 404 465 34,000  Level Jacksonville Center
09:50PM 30.5036 -83.7703 321° Northwest 404 465 34,000  Level Jacksonville Center
09:51PM 30.5906 -83.8556 320° Northwest 404 465 34,000  Level Jacksonville Center
09:52PM 30.6797 -83.9386 321° Northwest 404 465 34,000  Level Jacksonville Center
09:53PM 30.7689 -84.0217 321° Northwest 404 465 34,000  Level Jacksonville Center
09:54PM 30.8578 -84.1075 320° Northwest 404 465 34,000  Level Jacksonville Center
09:55PM 30.9467 -84.1933 320° Northwest 404 465 34,000  Level Jacksonville Center
09:56PM 31.0336 -84.2769 321° Northwest 404 465 34,000  Level Jacksonville Center
09:57PM 31.1225 -84.3633 320° Northwest 404 465 34,000  Level Jacksonville Center
09:58PM 31.2111 -84.4497 320° Northwest 404 465 34,000  Level Jacksonville Center
09:59PM 31.3386 -84.5714 321° Northwest 415 478 34,000  Level Atlanta Center
10:00PM 31.4278 -84.6569 321° Northwest 415 478 34,000  Level Atlanta Center
10:01PM 31.5131 -84.7428 319° Northwest 415 478 34,000  Level Atlanta Center
10:02PM 31.6000 -84.8264 321° Northwest 409 471 34,000  Level Atlanta Center
10:03PM 31.6892 -84.9125 321° Northwest 403 464 34,000  Level Atlanta Center
10:04PM 31.7764 -84.9989 320° Northwest 408 470 34,000  Level Atlanta Center
10:05PM 31.8633 -85.0781 322° Northwest 403 464 34,000  Level Atlanta Center
10:06PM 31.9586 -85.1722 320° Northwest 403 464 34,000  Level Atlanta Center
10:07PM 32.0453 -85.2567 320° Northwest 403 464 34,000  Level Atlanta Center
10:08PM 32.1322 -85.3411 321° Northwest 403 464 34,000  Level Atlanta Center
10:09PM 32.2231 -85.4308 320° Northwest 403 464 34,000  Level Atlanta Center
10:10PM 32.3097 -85.5158 320° Northwest 408 470 34,000  Level Atlanta Center
10:11PM 32.3983 -85.6033 320° Northwest 408 470 34,000  Level Atlanta Center
10:12PM 32.4869 -85.6936 319° Northwest 408 470 34,000  Level Atlanta Center
10:13PM 32.5775 -85.7842 320° Northwest 413 475 34,000  Level Atlanta Center
10:14PM 32.6661 -85.8722 320° Northwest 418 481 34,000  Level Atlanta Center
10:15PM 32.7522 -85.9628 319° Northwest 418 481 34,000  Level Atlanta Center
10:16PM 32.8406 -86.0489 321° Northwest 418 481 34,000  Level Atlanta Center
10:17PM 32.9289 -86.1375 320° Northwest 413 475 34,000  Level Atlanta Center
10:18PM 33.0150 -86.2311 318° Northwest 419 482 34,000  Level Atlanta Center
10:19PM 33.1033 -86.3153 321° Northwest 419 482 34,000  Level Atlanta Center
10:20PM 33.1872 -86.4042 318° Northwest 407 468 34,000  Level Atlanta Center
10:21PM 33.2731 -86.4886 321° Northwest 407 468 34,000  Level Atlanta Center
10:22PM 33.3467 -86.5678 318° Northwest 402 463 34,000  Level Atlanta Center
10:23PM 33.4325 -86.6550 320° Northwest 402 463 34,000  Level Atlanta Center
10:24PM 33.5183 -86.7422 320° Northwest 402 463 34,000  Level Atlanta Center
10:27PM 33.7353 -86.9403 323° Northwest 416 479 34,000  Level Memphis Center
10:28PM 33.8392 -86.9961 336° Northwest 407 468 34,000  Level Memphis Center
10:29PM 33.9428 -87.0447 339° North 397 457 34,000  Level Memphis Center
10:30PM 34.0444 -87.1058 334° Northwest 400 460 34,000  Level Memphis Center
10:31PM 34.1483 -87.1672 334° Northwest 400 460 34,000  Level Memphis Center
10:32PM 34.2644 -87.2233 338° Northwest 405 466 34,000  Level Memphis Center
10:33PM 34.3703 -87.2772 337° Northwest 405 466 34,000  Level Memphis Center
10:34PM 34.4719 -87.3389 333° Northwest 405 466 34,000  Level Memphis Center
10:35PM 34.5628 -87.3889 336° Northwest 405 466 34,000  Level Memphis Center
10:37PM 34.7850 -87.5150 335° Northwest 411 473 34,000  Level Memphis Center
10:38PM 34.8883 -87.5747 335° Northwest 411 473 34,000  Level Memphis Center
10:39PM 34.9961 -87.6347 335° Northwest 406 467 34,000  Level Memphis Center
10:40PM 35.1017 -87.6947 335° Northwest 411 473 34,000  Level Memphis Center
10:41PM 35.2072 -87.7522 336° Northwest 416 479 34,000  Level Memphis Center
10:42PM 35.3128 -87.8125 335° Northwest 416 479 34,000  Level Memphis Center
10:43PM 35.4058 -87.8658 335° Northwest 409 471 34,000  Level Memphis Center
10:44PM 35.5114 -87.9289 334° Northwest 414 476 34,000  Level Memphis Center
10:45PM 35.6189 -87.9894 335° Northwest 420 483 34,000  Level Memphis Center
10:46PM 35.7369 -88.0553 336° Northwest 420 483 34,000 240 Level Memphis Center
10:47PM 35.8442 -88.1164 335° Northwest 432 497 34,500 720 Climbing Memphis Center
10:48PM 35.9431 -88.1647 338° Northwest 425 489 35,500 720 Climbing Memphis Center
10:49PM 36.0486 -88.2261 335° Northwest 420 483 36,000 240 Climbing Memphis Center
10:50PM 36.1517 -88.2903 333° Northwest 420 483 36,000  Level Memphis Center
10:51PM 36.2547 -88.3494 335° Northwest 415 478 36,000  Level Memphis Center
10:52PM 36.3600 -88.4086 336° Northwest 410 472 36,000  Level Memphis Center
10:53PM 36.4653 -88.4706 335° Northwest 410 472 36,000  Level Memphis Center
10:54PM 36.5725 -88.5328 335° Northwest 410 472 36,000  Level Memphis Center
10:55PM 36.6775 -88.5950 335° Northwest 410 472 36,000  Level Memphis Center
10:56PM 36.7828 -88.6575 335° Northwest 410 472 36,000  Level Memphis Center
10:57PM 36.8856 -88.7203 334° Northwest 410 472 36,000  Level Memphis Center
10:58PM 36.9886 -88.7831 334° Northwest 410 472 36,000  Level Memphis Center
10:59PM 37.1719 -88.8917 335° Northwest 412 474 36,000  Level Kansas City Center
11:00PM 37.2742 -88.9522 335° Northwest 409 471 36,000  Level Kansas City Center
11:01PM 37.3769 -89.0142 334° Northwest 410 472 36,000  Level Kansas City Center
11:02PM 37.4814 -89.0772 334° Northwest 413 475 36,000  Level Kansas City Center
11:03PM 37.5850 -89.1419 334° Northwest 415 478 36,000  Level Kansas City Center
11:04PM 37.6883 -89.2050 334° Northwest 413 475 36,000  Level Kansas City Center
11:05PM 37.7925 -89.2669 335° Northwest 414 476 36,000  Level Kansas City Center
11:07PM 37.9106 -89.3389 334° Northwest 413 475 36,000  Level Kansas City Center
11:08PM 38.0214 -89.4064 334° Northwest 412 474 36,000  Level Kansas City Center
11:09PM 38.1244 -89.4697 334° Northwest 410 472 36,000  Level Kansas City Center
11:10PM 38.2261 -89.5314 335° Northwest 407 468 36,000  Level Kansas City Center
11:11PM 38.3289 -89.5953 334° Northwest 411 473 36,000  Level Kansas City Center
11:12PM 38.4306 -89.6572 334° Northwest 407 468 36,000  Level Kansas City Center
11:13PM 38.5350 -89.7219 334° Northwest 410 472 36,000  Level Kansas City Center
11:14PM 38.6361 -89.7844 334° Northwest 409 471 36,000  Level Kansas City Center
11:15PM 38.7367 -89.8475 334° Northwest 406 467 36,000  Level Kansas City Center
11:16PM 38.8367 -89.9111 334° Northwest 405 466 36,000  Level Kansas City Center
11:17PM 38.9503 -89.9836 334° Northwest 405 466 36,000  Level Kansas City Center
11:18PM 39.0383 -90.0389 334° Northwest 408 470 36,000  Level Kansas City Center
11:19PM 39.1414 -90.1031 334° Northwest 411 473 36,000  Level Kansas City Center
11:20PM 39.2628 -90.1811 334° Northwest 411 473 36,000  Level Kansas City Center
11:21PM 39.3650 -90.2453 334° Northwest 411 473 36,000  Level Kansas City Center
11:22PM 39.4669 -90.3114 333° Northwest 412 474 36,000  Level Kansas City Center
11:23PM 39.5689 -90.3772 334° Northwest 412 474 36,000  Level Kansas City Center
11:24PM 39.6703 -90.4439 333° Northwest 410 472 36,000  Level Kansas City Center
11:25PM 39.7767 -90.5100 334° Northwest 408 470 36,000  Level Kansas City Center
11:26PM 39.8792 -90.5783 333° Northwest 411 473 36,000  Level Kansas City Center
11:27PM 39.9817 -90.6447 334° Northwest 410 472 36,000  Level Kansas City Center
11:28PM 40.0847 -90.7117 334° Northwest 411 473 36,000  Level Kansas City Center
11:28PM 40.1261 -90.7403 332° Northwest 410 472 36,000  Level Chicago Center
11:29PM 40.2281 -90.8078 333° Northwest 414 476 36,000  Level Chicago Center
11:30PM 40.3308 -90.8747 334° Northwest 412 474 36,000  Level Chicago Center
11:31PM 40.4342 -90.9422 334° Northwest 413 475 36,000  Level Chicago Center
11:32PM 40.5375 -91.0111 333° Northwest 414 476 36,000  Level Chicago Center
11:33PM 40.6408 -91.0808 333° Northwest 415 478 36,000  Level Chicago Center
11:34PM 40.7453 -91.1503 333° Northwest 417 480 36,000  Level Chicago Center
11:35PM 40.8489 -91.2194 333° Northwest 417 480 36,000  Level Chicago Center
11:36PM 40.9542 -91.2897 333° Northwest 420 483 36,000  Level Chicago Center
11:37PM 41.0572 -91.3597 333° Northwest 417 480 36,000  Level Chicago Center
11:38PM 41.1614 -91.4297 333° Northwest 418 481 36,000  Level Chicago Center
11:39PM 41.2831 -91.5131 333° Northwest 422 486 36,000  Level Chicago Center
11:40PM 41.3872 -91.5836 333° Northwest 423 487 36,000  Level Chicago Center
11:41PM 41.4908 -91.6544 333° Northwest 423 487 36,000  Level Chicago Center
11:42PM 41.5947 -91.7267 333° Northwest 423 487 36,000  Level Chicago Center
11:43PM 41.6983 -91.7983 333° Northwest 422 486 36,000  Level Chicago Center
11:44PM 41.8036 -91.8692 333° Northwest 425 489 36,000  Level Chicago Center
11:46PM 41.9072 -91.9417 332° Northwest 422 486 36,000  Level Chicago Center
11:47PM 42.0128 -92.0150 333° Northwest 427 491 36,000  Level Chicago Center
11:48PM 42.1392 -92.1036 333° Northwest 429 494 36,000  Level Chicago Center
11:48PM 42.2244 -92.1658 332° Northwest 431 496 36,000  Level Minneapolis Center
11:49PM 42.3314 -92.2414 332° Northwest 433 498 36,000  Level Minneapolis Center
11:50PM 42.4386 -92.3164 333° Northwest 435 501 36,000  Level Minneapolis Center
11:51PM 42.5461 -92.3936 332° Northwest 438 504 36,000  Level Minneapolis Center
11:52PM 42.6464 -92.4833 327° Northwest 432 497 36,000  Level Minneapolis Center
11:53PM 42.7472 -92.5761 326° Northwest 438 504 36,000  Level Minneapolis Center
11:54PM 42.8636 -92.6239 343° North 442 509 36,000  Level Minneapolis Center
11:55PM 42.9842 -92.6608 347° North 444 511 36,000  Level Minneapolis Center
11:56PM 43.1061 -92.6967 348° North 447 514 36,000 -360 Level Minneapolis Center
11:58PM 43.2522 -92.7381 348° North 448 516 35,300 -1,680 Descending Minneapolis Center
11:59PM 43.3739 -92.7722 348° North 448 516 32,600 -2,760 Descending Minneapolis Center
12:00AM 43.4947 -92.8119 347° North 449 517 29,700 -2,880 Descending Minneapolis Center
12:01AM 43.6156 -92.8456 349° North 447 514 26,700 -2,820 Descending Minneapolis Center
12:02AM 43.7319 -92.8803 348° North 435 501 23,900 -3,000 Descending Minneapolis Center
12:03AM 43.8606 -92.9139 349° North 417 480 20,700 -2,820 Descending Minneapolis Center
12:04AM 43.9725 -92.9486 347° North 414 476 18,200 -2,100 Descending Minneapolis Center
12:05AM 44.0800 -92.9811 348° North 403 464 16,500 -1,800 Descending Minneapolis Center
12:06AM 44.1811 -93.0097 349° North 384 442 14,600 -1,980 Descending Minneapolis Center
12:07AM 44.2803 -93.0200 356° North 364 419 12,600 -2,040 Descending Minneapolis Center
12:08AM 44.3775 -93.0278 357° North 351 404 10,500 -1,920 Descending Minneapolis Center
12:09AM 44.4625 -93.0344 357° North 307 353 8,800 -1,920 Descending Minneapolis Center
12:10AM 44.5406 -93.0425 356° North 285 328 6,700 -1,740 Descending Minneapolis Center
12:11AM 44.6189 -93.0494 356° North 284 327 5,400 -1,080 Descending Minneapolis Center
12:12AM 44.6781 -93.0547 356° North 275 316 4,600 -960 Descending Minneapolis Center
12:13AM 44.7742 -93.0822 349° North 254 292 3,500 -1,080 Descending Minneapolis Center
12:14AM 44.8261 -93.1200 333° Northwest 206 237 2,500 -960 Descending Minneapolis Center
12:15AM 44.8561 -93.1586 318° Northwest 148 170 1,600 -900 Descending Minneapolis Center
12:17AM 44.8667 -93.2167 340° North  Level FlightAware Approximate
12:24AM 44.8820 -93.2218 340° North  Level Estimated
12:25AM 44.8820 -93.2218 340° North  Level Estimated